»·PEaware :: N6451W KSMX-KBFL

N6451W :: KSMX-KBFL

FLIGHT INFORMATION

Flight Status: Arrived
Operator: Privately registered:
United States
More flights under this callsign
Pilot: Gabriel P. (22605)
Aircraft: PIPER PA-28 CHEROKEE ARCHER
(PA28)
More flights by this aircraft type
Origin: KSMX Santa Maria Pub/Capt Hancock
United States
Destination: KBFL Meadows
United States
More flights between these airports :: More routes between these airports
Route: +
File this flight plan on PilotEdge
Remarks: CAT5
Altitude:
(Current/Filed)
0ft
Speed:
(Current/Filed)
0kts
Departed: 10-Feb-19 01:44 PM
Arrived: 10-Feb-19 02:24 PM
Distance/Time
Traveled:
76nm/0:40
Distance/Time
To Go:
Arrived

Flight Plot

Page will automatically refresh every two minutes.


Map Options




Map Legend


Flown Route
Filed Route
Departure Airport
Arrival Airport
Navaid (VOR, NDB)
Fix

Horizontal Profiles

Position Reports

Time Latitude Longitude Heading Altitude Ground
Speed
10-Feb-19 13:36 34.897473 -120.448294 215 264ft 10kts
10-Feb-19 13:37 34.894791 -120.446230 135 264ft 17kts
10-Feb-19 13:38 34.893293 -120.445267 218 264ft 0kts
10-Feb-19 13:39 34.893291 -120.445270 218 264ft 0kts
10-Feb-19 13:40 34.893289 -120.445271 218 264ft 0kts
10-Feb-19 13:41 34.893287 -120.445273 218 264ft 0kts
10-Feb-19 13:42 34.893279 -120.445282 219 264ft 2kts
10-Feb-19 13:43 34.903429 -120.458449 316 557ft 100kts
10-Feb-19 13:44 34.929299 -120.466406 53 1359ft 112kts
10-Feb-19 13:45 34.944870 -120.431771 62 2087ft 116kts
10-Feb-19 13:46 34.957892 -120.395166 63 2787ft 117kts
10-Feb-19 13:47 34.970155 -120.358346 64 3418ft 117kts
10-Feb-19 13:48 34.978436 -120.331956 67 3793ft 118kts
10-Feb-19 13:49 34.989902 -120.294107 66 4381ft 119kts
10-Feb-19 13:50 35.000838 -120.255636 67 4850ft 120kts
10-Feb-19 13:51 35.011621 -120.216892 66 5258ft 121kts
10-Feb-19 13:52 35.022757 -120.177588 66 5598ft 120kts
10-Feb-19 13:53 35.033633 -120.138347 66 5955ft 123kts
10-Feb-19 13:54 35.045014 -120.098866 64 6278ft 123kts
10-Feb-19 13:55 35.057448 -120.059699 61 6579ft 123kts
10-Feb-19 13:56 35.071446 -120.021389 60 6853ft 124kts
10-Feb-19 13:57 35.085448 -119.982761 60 7097ft 125kts
10-Feb-19 13:58 35.099439 -119.943648 60 7326ft 125kts
10-Feb-19 13:59 35.113447 -119.904348 60 7504ft 127kts
10-Feb-19 14:00 35.127941 -119.864954 58 7655ft 127kts
10-Feb-19 14:01 35.144166 -119.823921 58 7472ft 134kts
10-Feb-19 14:02 35.160262 -119.783237 58 7474ft 129kts
10-Feb-19 14:03 35.175597 -119.744149 58 7574ft 131kts
10-Feb-19 14:04 35.191931 -119.703376 58 7463ft 134kts
10-Feb-19 14:05 35.208083 -119.663039 58 7496ft 130kts
10-Feb-19 14:06 35.223994 -119.623244 58 7550ft 130kts
10-Feb-19 14:07 35.239074 -119.582902 60 7628ft 132kts
10-Feb-19 14:08 35.255049 -119.540893 61 7386ft 129kts
10-Feb-19 14:09 35.270911 -119.499619 62 7373ft 137kts
10-Feb-19 14:10 35.286560 -119.457347 62 7441ft 135kts
10-Feb-19 14:11 35.302049 -119.415068 63 7463ft 133kts
10-Feb-19 14:12 35.314829 -119.378589 62 7047ft 117kts
10-Feb-19 14:13 35.327753 -119.342948 62 6582ft 114kts
10-Feb-19 14:14 35.335307 -119.305870 74 6125ft 110kts
10-Feb-19 14:15 35.342455 -119.268974 74 5802ft 113kts
10-Feb-19 14:16 35.349318 -119.231840 74 5155ft 111kts
10-Feb-19 14:17 35.356316 -119.195261 72 4543ft 109kts
10-Feb-19 14:18 35.363233 -119.159416 74 3965ft 107kts
10-Feb-19 14:19 35.369791 -119.123938 72 3420ft 105kts
10-Feb-19 14:20 35.379942 -119.090607 51 2840ft 104kts
10-Feb-19 14:21 35.397353 -119.065241 44 2159ft 95kts
10-Feb-19 14:22 35.415005 -119.047886 39 1119ft 76kts
10-Feb-19 14:23 35.429078 -119.053950 305 510ft 13kts
10-Feb-19 14:24 35.428824 -119.054617 230 510ft 0kts
10-Feb-19 14:25 35.428824 -119.054619 230 510ft 0kts
10-Feb-19 14:26 35.427237 -119.056187 165 510ft 5kts
10-Feb-19 14:27 35.426216 -119.054240 101 510ft 12kts
10-Feb-19 14:28 35.424058 -119.053236 119 510ft 4kts
10-Feb-19 14:29 35.424009 -119.052798 91 510ft 0kts
10-Feb-19 14:30 35.424009 -119.052794 91 510ft 0kts
10-Feb-19 14:31 35.424009 -119.052789 91 510ft 0kts
10-Feb-19 14:32 35.424009 -119.052784 91 510ft 0kts
10-Feb-19 14:33 35.424009 -119.052780 91 510ft 0kts
10-Feb-19 14:34 35.424009 -119.052775 91 510ft 0kts
10-Feb-19 14:35 35.424009 -119.052770 91 510ft 0kts
10-Feb-19 14:36 35.424009 -119.052764 91 510ft 0kts
10-Feb-19 14:37 35.424009 -119.052760 91 510ft 0kts

Navigation Log

Ident Type
Flight plan parsing failed, navigation log unavailable